createdAt,value
2022-10-28T00:00:13.246Z,5.47
2022-10-28T00:02:41.011Z,5.22
2022-10-28T00:05:09.475Z,5.07
2022-10-28T00:07:37.162Z,5.10
2022-10-28T00:10:07.543Z,4.93
2022-10-28T00:12:36.343Z,5.25
2022-10-28T00:15:04.726Z,4.70
2022-10-28T00:17:32.531Z,5.15
2022-10-28T00:20:00.273Z,4.70
2022-10-28T00:22:28.554Z,5.38
2022-10-28T00:24:56.194Z,4.78
2022-10-28T00:27:25.238Z,5.65
2022-10-28T00:29:52.963Z,4.60
2022-10-28T00:32:20.641Z,4.82
2022-10-28T00:34:48.699Z,5.47
2022-10-28T00:37:16.378Z,4.85
2022-10-28T00:39:44.046Z,5.22
2022-10-28T00:42:12.163Z,4.43
2022-10-28T00:44:53.234Z,4.88
2022-10-28T00:47:32.667Z,5.07
2022-10-28T00:50:08.854Z,4.60
2022-10-28T00:52:36.844Z,5.43
2022-10-28T00:55:05.654Z,4.47
2022-10-28T00:57:37.610Z,4.53
2022-10-28T01:00:08.512Z,4.43
2022-10-28T01:02:44.433Z,4.75
2022-10-28T01:05:14.549Z,4.85
2022-10-28T01:07:43.060Z,4.35
2022-10-28T01:10:12.110Z,4.30
2022-10-28T01:12:54.603Z,4.45
2022-10-28T01:15:34.734Z,4.82
2022-10-28T01:18:13.839Z,5.57
2022-10-28T01:21:13.633Z,5.30
2022-10-28T01:23:55.218Z,4.65
2022-10-28T01:26:37.551Z,5.30
2022-10-28T01:29:58.163Z,4.60
2022-10-28T01:32:33.710Z,5.10
2022-10-28T01:35:12.055Z,4.75
2022-10-28T01:37:48.562Z,4.80
2022-10-28T01:40:24.536Z,5.07
2022-10-28T01:42:57.421Z,5.47
2022-10-28T01:45:30.036Z,4.10
2022-10-28T01:48:02.161Z,4.72
2022-10-28T01:50:35.770Z,4.22
2022-10-28T01:53:14.198Z,4.25
2022-10-28T01:55:46.785Z,4.75
2022-10-28T01:58:18.655Z,4.40
2022-10-28T02:00:47.586Z,5.03
2022-10-28T02:03:17.947Z,4.22
2022-10-28T02:05:47.452Z,5.22
2022-10-28T02:08:26.362Z,4.90
2022-10-28T02:11:05.315Z,5.72
2022-10-28T02:13:40.694Z,5.35
2022-10-28T02:16:16.913Z,5.10
2022-10-28T02:18:53.991Z,4.70
2022-10-28T02:21:32.953Z,4.55
2022-10-28T02:24:08.539Z,4.60
2022-10-28T02:26:42.783Z,4.47
2022-10-28T02:29:18.380Z,4.75
2022-10-28T02:31:49.611Z,4.75
2022-10-28T02:34:22.439Z,5.35
2022-10-28T02:36:53.313Z,5.15
2022-10-28T02:39:29.015Z,5.57
2022-10-28T02:42:02.247Z,5.55
2022-10-28T02:44:34.696Z,4.88
2022-10-28T02:47:08.795Z,5.50
2022-10-28T02:49:39.975Z,5.20
2022-10-28T02:52:08.985Z,4.95
2022-10-28T02:54:41.160Z,5.28
2022-10-28T02:57:12.851Z,4.50
2022-10-28T02:59:41.202Z,5.15
2022-10-28T03:02:09.523Z,4.88
2022-10-28T03:04:38.668Z,4.93
2022-10-28T03:07:06.336Z,4.47
2022-10-28T03:09:34.100Z,5.20
2022-10-28T03:12:01.795Z,4.95
2022-10-28T03:14:29.508Z,4.38
2022-10-28T03:16:57.568Z,4.82
2022-10-28T03:19:25.262Z,5.28
2022-10-28T03:21:54.640Z,4.47
2022-10-28T03:24:22.410Z,4.40
2022-10-28T03:26:50.060Z,4.13
2022-10-28T03:29:17.870Z,4.35
2022-10-28T03:31:45.548Z,4.60
2022-10-28T03:34:13.245Z,4.28
2022-10-28T03:36:40.960Z,4.40
2022-10-28T03:39:10.016Z,4.38
2022-10-28T03:41:37.740Z,4.93
2022-10-28T03:44:06.131Z,4.47
2022-10-28T03:46:35.983Z,4.35
2022-10-28T03:49:04.178Z,4.53
2022-10-28T03:51:32.079Z,4.38
2022-10-28T03:53:59.832Z,5.10
2022-10-28T03:56:28.935Z,4.72
2022-10-28T03:58:56.689Z,4.43
2022-10-28T04:01:24.558Z,4.90
2022-10-28T04:03:52.768Z,4.72
2022-10-28T04:06:20.549Z,4.75
2022-10-28T04:08:48.233Z,5.40
2022-10-28T04:11:16.109Z,5.55
2022-10-28T04:13:45.290Z,5.05
2022-10-28T04:16:13.004Z,5.22
2022-10-28T04:18:40.772Z,4.60
2022-10-28T04:21:08.503Z,4.40
2022-10-28T04:23:36.302Z,5.60
2022-10-28T04:26:04.240Z,4.45
2022-10-28T04:28:32.156Z,4.97
2022-10-28T04:31:02.075Z,5.18
2022-10-28T04:33:29.799Z,4.93
2022-10-28T04:35:57.547Z,4.70
2022-10-28T04:40:58.137Z,4.95
2022-10-28T04:43:25.909Z,4.82
2022-10-28T04:45:53.695Z,4.50
2022-10-28T04:48:23.151Z,4.20
2022-10-28T04:50:51.169Z,4.30
2022-10-28T04:53:18.853Z,4.68
2022-10-28T04:55:46.564Z,4.97
2022-10-28T04:58:14.320Z,5.03
2022-10-28T05:00:42.030Z,4.70
2022-10-28T05:03:09.776Z,4.88
2022-10-28T05:05:38.949Z,5.30
2022-10-28T05:08:07.361Z,4.88
2022-10-28T05:10:35.321Z,5.45
2022-10-28T05:13:03.031Z,5.22
2022-10-28T05:15:31.361Z,5.32
2022-10-28T05:17:59.111Z,5.35
2022-10-28T05:20:26.894Z,5.60
2022-10-28T05:22:57.031Z,4.78
2022-10-28T05:25:25.196Z,4.80
2022-10-28T05:27:53.062Z,5.53
2022-10-28T05:30:21.089Z,4.95
2022-10-28T05:32:51.538Z,4.93
2022-10-28T05:35:22.214Z,4.68
2022-10-28T05:37:49.912Z,4.95
2022-10-28T05:40:19.454Z,4.72
2022-10-28T05:42:47.163Z,5.07
2022-10-28T05:45:15.070Z,4.35
2022-10-28T05:47:46.768Z,5.30
2022-10-28T05:50:16.410Z,4.80
2022-10-28T05:52:47.089Z,4.78
2022-10-28T05:55:15.031Z,5.38
2022-10-28T05:57:44.696Z,4.68
2022-10-28T06:00:13.958Z,4.68
2022-10-28T06:02:42.130Z,4.68
2022-10-28T06:05:11.962Z,5.47
2022-10-28T06:07:41.479Z,4.97
2022-10-28T06:10:11.257Z,5.28
2022-10-28T06:12:37.820Z,4.90
2022-10-28T06:15:07.839Z,5.95
2022-10-28T06:17:35.801Z,5.57
2022-10-28T06:20:04.650Z,5.35
2022-10-28T06:22:32.574Z,4.93
2022-10-28T06:25:00.294Z,5.10
2022-10-28T06:27:28.011Z,5.43
2022-10-28T06:29:55.889Z,5.30
2022-10-28T06:32:25.115Z,5.20
2022-10-28T06:34:53.218Z,5.43
2022-10-28T06:37:20.991Z,5.70
2022-10-28T06:39:51.370Z,5.22
2022-10-28T06:42:19.420Z,4.90
2022-10-28T06:44:48.027Z,6.15
2022-10-28T06:47:17.275Z,6.50
2022-10-28T06:49:46.310Z,6.20
2022-10-28T06:52:14.098Z,5.68
2022-10-28T06:54:43.488Z,5.40
2022-10-28T06:57:11.426Z,4.68
2022-10-28T06:59:39.162Z,5.55
2022-10-28T07:02:07.283Z,6.82
2022-10-28T07:04:35.322Z,6.37
2022-10-28T07:07:04.868Z,6.45
2022-10-28T07:09:33.576Z,7.30
2022-10-28T07:12:04.851Z,6.95
2022-10-28T07:14:35.241Z,5.70
2022-10-28T07:17:03.165Z,6.45
2022-10-28T07:19:30.971Z,5.55
2022-10-28T07:21:58.738Z,5.75
2022-10-28T07:27:00.480Z,5.50
2022-10-28T07:29:28.193Z,6.50
2022-10-28T07:31:56.199Z,6.10
2022-10-28T07:34:26.984Z,5.80
2022-10-28T07:36:56.362Z,6.15
2022-10-28T07:39:24.387Z,6.13
2022-10-28T07:41:53.569Z,6.28
2022-10-28T07:44:21.483Z,5.35
2022-10-28T07:46:50.477Z,5.55
2022-10-28T07:49:19.782Z,5.60
2022-10-28T07:51:47.857Z,6.30
2022-10-28T07:54:15.589Z,6.25
2022-10-28T07:56:43.342Z,5.88
2022-10-28T07:59:12.475Z,6.13
2022-10-28T08:01:40.855Z,5.72
2022-10-28T08:04:08.686Z,5.22
2022-10-28T08:06:36.615Z,5.65
2022-10-28T08:09:04.852Z,5.25
2022-10-28T08:11:32.686Z,4.85
2022-10-28T08:14:00.382Z,5.32
2022-10-28T08:16:29.897Z,5.07
2022-10-28T08:18:57.735Z,4.88
2022-10-28T08:21:27.060Z,5.15
2022-10-28T08:23:55.228Z,4.97
2022-10-28T08:26:23.225Z,4.80
2022-10-28T08:28:51.100Z,4.60
2022-10-28T08:31:18.801Z,5.03
2022-10-28T08:33:47.804Z,4.75
2022-10-28T08:36:17.506Z,4.90
2022-10-28T08:38:46.104Z,5.25
2022-10-28T08:41:30.742Z,5.28
2022-10-28T08:44:21.436Z,5.68
2022-10-28T08:47:02.928Z,5.75
2022-10-28T08:49:35.754Z,4.60
2022-10-28T08:52:07.068Z,4.97
2022-10-28T08:54:38.571Z,4.78
2022-10-28T08:57:17.900Z,5.22
2022-10-28T08:59:46.447Z,5.32
2022-10-28T09:02:22.449Z,5.50
2022-10-28T09:04:59.120Z,5.72
2022-10-28T09:07:26.880Z,5.70
2022-10-28T09:09:55.920Z,5.35
2022-10-28T09:12:39.650Z,4.90
2022-10-28T09:15:20.535Z,5.53
2022-10-28T09:17:54.716Z,4.95
2022-10-28T09:20:32.000Z,5.20
2022-10-28T09:23:01.204Z,5.75
2022-10-28T09:25:37.604Z,5.72
2022-10-28T09:28:21.678Z,5.15
2022-10-28T09:31:01.196Z,5.05
2022-10-28T09:33:47.077Z,5.15
2022-10-28T09:36:20.186Z,4.70
2022-10-28T09:38:48.839Z,5.60
2022-10-28T09:41:20.837Z,5.38
2022-10-28T09:43:52.552Z,4.18
2022-10-28T09:46:21.219Z,4.65
2022-10-28T09:48:51.607Z,4.97
2022-10-28T09:51:32.277Z,4.80
2022-10-28T09:54:01.328Z,5.43
2022-10-28T09:56:30.761Z,4.68
2022-10-28T09:59:02.988Z,4.70
2022-10-28T10:01:33.977Z,5.55
2022-10-28T10:04:02.948Z,5.03
2022-10-28T10:06:37.551Z,5.25
2022-10-28T10:09:06.454Z,5.70
2022-10-28T10:11:39.775Z,4.38
2022-10-28T10:14:11.027Z,5.00
2022-10-28T10:16:42.316Z,4.72
2022-10-28T10:19:11.917Z,4.40
2022-10-28T10:21:46.495Z,4.78
2022-10-28T10:24:33.110Z,4.63
2022-10-28T10:27:13.647Z,4.57
2022-10-28T10:29:46.302Z,5.22
2022-10-28T10:32:18.922Z,4.72
2022-10-28T10:34:53.602Z,5.82
2022-10-28T10:37:24.538Z,4.80
2022-10-28T10:40:21.858Z,5.20
2022-10-28T10:43:03.541Z,4.78
2022-10-28T10:45:37.591Z,5.35
2022-10-28T10:48:13.681Z,5.97
2022-10-28T10:50:42.838Z,5.20
2022-10-28T10:53:21.222Z,5.35
2022-10-28T10:55:55.108Z,5.55
2022-10-28T10:58:24.805Z,5.57
2022-10-28T11:00:55.110Z,5.60
2022-10-28T11:03:28.854Z,5.05
2022-10-28T11:08:57.398Z,4.95
2022-10-28T11:11:34.142Z,5.43
2022-10-28T11:14:08.509Z,4.90
2022-10-28T11:16:48.872Z,5.05
2022-10-28T11:19:21.939Z,5.30
2022-10-28T11:22:15.470Z,4.60
2022-10-28T11:25:15.605Z,5.57
2022-10-28T11:28:04.010Z,5.50
2022-10-28T11:30:46.711Z,5.53
2022-10-28T11:33:30.868Z,4.50
2022-10-28T11:36:12.669Z,4.65
2022-10-28T11:39:08.596Z,4.90
2022-10-28T11:41:51.613Z,5.00
2022-10-28T11:44:31.911Z,5.05
2022-10-28T11:47:12.845Z,4.45
2022-10-28T11:50:03.441Z,4.30
2022-10-28T11:52:52.023Z,4.00
2022-10-28T11:55:31.418Z,5.07
2022-10-28T11:58:28.766Z,4.10
2022-10-28T12:01:09.715Z,4.78
2022-10-28T12:04:17.308Z,4.55
2022-10-28T12:07:20.018Z,4.40
2022-10-28T12:10:11.730Z,4.55
2022-10-28T12:12:48.644Z,4.22
2022-10-28T12:15:27.692Z,5.72
2022-10-28T12:18:06.089Z,4.68
2022-10-28T12:20:41.182Z,4.25
2022-10-28T12:23:14.655Z,4.57
2022-10-28T12:25:47.126Z,4.50
2022-10-28T12:28:23.345Z,3.97
2022-10-28T12:30:55.618Z,4.03
2022-10-28T12:33:41.756Z,4.20
2022-10-28T12:36:35.383Z,4.25
2022-10-28T12:39:17.365Z,4.03
2022-10-28T12:41:52.566Z,4.00
2022-10-28T12:44:22.158Z,4.28
2022-10-28T12:47:04.106Z,4.50
2022-10-28T12:49:45.950Z,4.60
2022-10-28T12:52:27.901Z,4.60
2022-10-28T12:55:02.732Z,4.43
2022-10-28T12:57:35.718Z,4.68
2022-10-28T13:00:15.983Z,4.55
2022-10-28T13:02:54.151Z,4.60
2022-10-28T13:05:25.664Z,4.45
2022-10-28T13:08:10.130Z,4.85
2022-10-28T13:10:45.772Z,4.85
2022-10-28T13:13:46.695Z,4.40
2022-10-28T13:16:41.944Z,4.93
2022-10-28T13:19:34.119Z,4.60
2022-10-28T13:25:03.741Z,3.95
2022-10-28T13:27:31.669Z,4.03
2022-10-28T13:30:02.960Z,4.93
2022-10-28T13:32:38.279Z,4.65
2022-10-28T13:35:24.767Z,4.60
2022-10-28T13:37:55.538Z,5.22
2022-10-28T13:40:44.978Z,4.40
2022-10-28T13:43:49.549Z,4.75
2022-10-28T13:47:11.434Z,4.15
2022-10-28T13:49:41.321Z,5.65
2022-10-28T13:52:22.488Z,6.07
2022-10-28T13:54:55.247Z,5.50
2022-10-28T13:57:27.810Z,5.22
2022-10-28T13:59:59.064Z,5.85
2022-10-28T14:02:36.679Z,5.35
2022-10-28T14:05:11.758Z,5.45
2022-10-28T14:07:58.016Z,5.20
2022-10-28T14:10:28.728Z,5.30
2022-10-28T14:12:59.631Z,4.80
2022-10-28T14:15:31.205Z,5.45
2022-10-28T14:18:16.410Z,5.03
2022-10-28T14:21:00.750Z,4.47
2022-10-28T14:24:07.771Z,4.95
2022-10-28T14:27:08.676Z,4.55
2022-10-28T14:29:44.110Z,3.88
2022-10-28T14:32:41.205Z,4.35
2022-10-28T14:35:21.232Z,3.90
2022-10-28T14:38:14.581Z,4.93
2022-10-28T14:40:53.319Z,4.55
2022-10-28T14:43:39.429Z,4.18
2022-10-28T14:46:21.527Z,4.60
2022-10-28T14:48:51.470Z,4.22
2022-10-28T14:51:22.183Z,4.20
2022-10-28T14:53:54.873Z,4.78
2022-10-28T14:56:27.113Z,4.45
2022-10-28T14:58:59.454Z,5.25
2022-10-28T15:01:29.303Z,4.45
2022-10-28T15:04:01.935Z,5.22
2022-10-28T15:06:37.627Z,4.53
2022-10-28T15:09:17.558Z,5.25
2022-10-28T15:11:58.665Z,4.57
2022-10-28T15:14:32.274Z,5.15
2022-10-28T15:17:01.034Z,5.13
2022-10-28T15:19:34.492Z,4.95
2022-10-28T15:22:08.014Z,4.90
2022-10-28T15:24:35.778Z,4.57
2022-10-28T15:27:05.026Z,5.60
2022-10-28T15:29:33.100Z,5.00
2022-10-28T15:32:05.749Z,5.05
2022-10-28T15:34:33.469Z,5.38
2022-10-28T15:37:01.283Z,5.80
2022-10-28T15:39:29.386Z,5.00
2022-10-28T15:41:57.546Z,5.55
2022-10-28T15:44:31.555Z,5.97
2022-10-28T15:47:00.619Z,5.38
2022-10-28T15:49:37.265Z,5.47
2022-10-28T15:52:33.173Z,5.15
2022-10-28T15:55:02.728Z,6.13
2022-10-28T15:57:32.420Z,5.18
2022-10-28T16:00:22.149Z,5.85
2022-10-28T16:02:55.582Z,5.55
2022-10-28T16:05:54.298Z,5.40
2022-10-28T16:08:25.507Z,5.88
2022-10-28T16:10:56.570Z,6.28
2022-10-28T16:13:30.398Z,5.50
2022-10-28T16:16:04.090Z,5.70
2022-10-28T16:18:35.873Z,5.57
2022-10-28T16:21:05.618Z,5.97
2022-10-28T16:23:37.947Z,6.20
2022-10-28T16:26:25.938Z,5.85
2022-10-28T16:28:53.902Z,6.53
2022-10-28T16:31:27.223Z,5.85
2022-10-28T16:33:55.350Z,6.07
2022-10-28T16:36:23.049Z,5.95
2022-10-28T16:38:50.758Z,6.70
2022-10-28T16:41:19.837Z,6.05
2022-10-28T16:43:50.823Z,5.97
2022-10-28T16:46:18.670Z,6.72
2022-10-28T16:48:47.770Z,6.85
2022-10-28T16:51:17.612Z,5.97
2022-10-28T16:53:49.629Z,7.50
2022-10-28T16:56:21.062Z,7.47
2022-10-28T16:58:49.007Z,7.72
2022-10-28T17:01:20.401Z,7.78
2022-10-28T17:03:49.718Z,7.78
2022-10-28T17:06:17.481Z,7.40
2022-10-28T17:11:35.646Z,7.00
2022-10-28T17:14:05.773Z,9.00
2022-10-28T17:16:38.069Z,8.30
2022-10-28T17:19:09.762Z,9.13
2022-10-28T17:21:37.518Z,8.30
2022-10-28T17:24:05.720Z,8.15
2022-10-28T17:26:33.482Z,7.35
2022-10-28T17:29:04.260Z,8.63
2022-10-28T17:31:31.999Z,7.82
2022-10-28T17:33:59.929Z,7.93
2022-10-28T17:36:29.090Z,7.43
2022-10-28T17:38:59.017Z,8.13
2022-10-28T17:41:29.480Z,8.02
2022-10-28T17:43:57.484Z,8.63
2022-10-28T17:46:25.751Z,7.82
2022-10-28T17:48:53.545Z,8.02
2022-10-28T17:51:24.683Z,8.32
2022-10-28T17:53:56.281Z,7.78
2022-10-28T17:56:26.197Z,8.30
2022-10-28T17:58:54.979Z,8.07
2022-10-28T18:01:24.746Z,8.27
2022-10-28T18:03:52.822Z,8.43
2022-10-28T18:06:20.932Z,8.45
2022-10-28T18:11:22.954Z,8.77
2022-10-28T18:13:52.826Z,8.13
2022-10-28T18:16:22.089Z,8.07
2022-10-28T18:18:50.803Z,8.07
2022-10-28T18:21:19.067Z,8.43
2022-10-28T18:23:52.570Z,8.73
2022-10-28T18:26:20.443Z,9.35
2022-10-28T18:28:49.943Z,8.68
2022-10-28T18:31:19.616Z,7.20
2022-10-28T18:33:49.135Z,7.65
2022-10-28T18:36:19.243Z,7.17
2022-10-28T18:38:47.183Z,6.57
2022-10-28T18:41:16.767Z,7.15
2022-10-28T18:43:44.599Z,7.63
2022-10-28T18:46:14.207Z,6.90
2022-10-28T18:48:42.155Z,7.40
2022-10-28T18:51:12.702Z,6.13
2022-10-28T18:53:41.875Z,7.07
2022-10-28T18:56:12.434Z,7.30
2022-10-28T18:58:40.736Z,7.40
2022-10-28T19:01:10.498Z,7.10
2022-10-28T19:03:39.832Z,7.87
2022-10-28T19:06:09.423Z,7.63
2022-10-28T19:08:37.554Z,8.20
2022-10-28T19:11:05.963Z,7.47
2022-10-28T19:13:35.101Z,7.00
2022-10-28T19:16:03.087Z,8.00
2022-10-28T19:18:35.226Z,8.30
2022-10-28T19:21:05.232Z,7.28
2022-10-28T19:23:33.026Z,7.90
2022-10-28T19:26:01.061Z,8.10
2022-10-28T19:28:29.107Z,8.10
2022-10-28T19:31:05.110Z,8.43
2022-10-28T19:33:33.443Z,7.75
2022-10-28T19:36:07.113Z,7.67
2022-10-28T19:38:37.484Z,8.63
2022-10-28T19:41:07.326Z,8.10
2022-10-28T19:43:36.034Z,7.72
2022-10-28T19:46:08.522Z,7.78
2022-10-28T19:48:36.358Z,8.65
2022-10-28T19:51:04.422Z,8.25
2022-10-28T19:53:33.493Z,8.13
2022-10-28T19:56:02.883Z,9.30
2022-10-28T19:58:31.503Z,8.52
2022-10-28T20:01:04.264Z,8.80
2022-10-28T20:03:34.650Z,8.63
2022-10-28T20:06:05.815Z,7.82
2022-10-28T20:08:39.429Z,7.55
2022-10-28T20:11:09.318Z,8.63
2022-10-28T20:13:37.821Z,8.13
2022-10-28T20:16:08.438Z,8.93
2022-10-28T20:18:36.163Z,8.25
2022-10-28T20:21:06.236Z,8.43
2022-10-28T20:23:35.619Z,8.17
2022-10-28T20:26:05.879Z,8.02
2022-10-28T20:28:34.182Z,9.23
2022-10-28T20:31:03.352Z,8.63
2022-10-28T20:33:32.046Z,8.70
2022-10-28T20:36:00.340Z,8.00
2022-10-28T20:38:29.080Z,9.18
2022-10-28T20:40:58.732Z,7.90
2022-10-28T20:43:29.485Z,8.75
2022-10-28T20:45:58.705Z,8.38
2022-10-28T20:48:27.191Z,8.45
2022-10-28T20:50:56.429Z,8.80
2022-10-28T20:53:25.689Z,8.38
2022-10-28T20:55:55.530Z,9.30
2022-10-28T20:58:25.978Z,9.10
2022-10-28T21:00:55.499Z,8.52
2022-10-28T21:03:23.197Z,8.63
2022-10-28T21:05:50.921Z,8.93
2022-10-28T21:08:18.618Z,8.10
2022-10-28T21:10:46.331Z,8.82
2022-10-28T21:13:14.070Z,8.95
2022-10-28T21:15:42.367Z,9.52
2022-10-28T21:18:11.487Z,9.18
2022-10-28T21:20:40.652Z,8.68
2022-10-28T21:23:08.474Z,8.55
2022-10-28T21:25:36.619Z,8.90
2022-10-28T21:28:04.437Z,8.68
2022-10-28T21:30:32.270Z,8.65
2022-10-28T21:33:00.052Z,9.50
2022-10-28T21:35:29.226Z,8.93
2022-10-28T21:37:57.451Z,8.75
2022-10-28T21:40:25.821Z,9.13
2022-10-28T21:42:53.521Z,8.68
2022-10-28T21:45:21.315Z,8.68
2022-10-28T21:47:49.012Z,10.27
2022-10-28T21:50:18.194Z,9.77
2022-10-28T21:52:47.545Z,9.73
2022-10-28T21:55:20.497Z,9.43
2022-10-28T21:57:55.502Z,10.15
2022-10-28T22:00:23.470Z,10.50
2022-10-28T22:02:52.051Z,8.80
2022-10-28T22:05:19.912Z,8.98
2022-10-28T22:07:48.982Z,9.15
2022-10-28T22:10:16.731Z,8.65
2022-10-28T22:12:44.503Z,9.80
2022-10-28T22:15:12.276Z,8.70
2022-10-28T22:17:40.701Z,9.15
2022-10-28T22:20:10.761Z,8.75
2022-10-28T22:22:38.597Z,8.90
2022-10-28T22:25:10.434Z,8.77
2022-10-28T22:27:38.710Z,9.25
2022-10-28T22:30:07.250Z,9.27
2022-10-28T22:32:34.976Z,8.63
2022-10-28T22:35:02.822Z,8.45
2022-10-28T22:37:30.532Z,8.77
2022-10-28T22:39:58.306Z,8.20
2022-10-28T22:42:27.342Z,8.35
2022-10-28T22:44:55.104Z,8.73
2022-10-28T22:47:22.900Z,8.90
2022-10-28T22:49:50.623Z,8.45
2022-10-28T22:52:18.355Z,8.50
2022-10-28T22:54:46.090Z,9.15
2022-10-28T22:57:13.763Z,9.63
2022-10-28T22:59:42.764Z,8.57
2022-10-28T23:02:10.568Z,9.10
2022-10-28T23:04:38.371Z,8.68
2022-10-28T23:07:06.124Z,8.75
2022-10-28T23:09:33.909Z,8.57
2022-10-28T23:12:01.642Z,8.15
2022-10-28T23:14:29.345Z,8.73
2022-10-28T23:16:58.432Z,8.40
2022-10-28T23:19:26.178Z,8.88
2022-10-28T23:21:53.886Z,8.52
2022-10-28T23:24:21.642Z,8.10
2022-10-28T23:26:49.460Z,8.98
2022-10-28T23:29:17.274Z,8.32
2022-10-28T23:31:44.955Z,7.85
2022-10-28T23:34:14.106Z,8.30
2022-10-28T23:36:41.952Z,8.50
2022-10-28T23:39:10.108Z,7.97
2022-10-28T23:41:37.812Z,7.55
2022-10-28T23:44:05.794Z,8.07
2022-10-28T23:46:36.635Z,7.80
2022-10-28T23:49:05.471Z,7.55
2022-10-28T23:51:34.750Z,8.10
2022-10-28T23:54:02.536Z,7.20
2022-10-28T23:56:30.322Z,7.60
2022-10-28T23:58:58.349Z,8.07
